createdAt,value
2019-05-25T00:00:22.596Z,1010.38
2019-05-25T00:01:23.214Z,1010.46
2019-05-25T00:02:23.687Z,1010.42
2019-05-25T00:03:24.223Z,1010.40
2019-05-25T00:04:24.667Z,1010.42
2019-05-25T00:05:25.193Z,1010.36
2019-05-25T00:06:25.618Z,1010.45
2019-05-25T00:07:26.222Z,1010.44
2019-05-25T00:08:26.642Z,1010.41
2019-05-25T00:09:27.063Z,1010.43
2019-05-25T00:10:27.502Z,1010.47
2019-05-25T00:11:27.925Z,1010.43
2019-05-25T00:12:29.510Z,1010.40
2019-05-25T00:13:29.943Z,1010.41
2019-05-25T00:14:30.549Z,1010.44
2019-05-25T00:15:30.983Z,1010.47
2019-05-25T00:16:31.608Z,1010.48
2019-05-25T00:17:32.037Z,1010.48
2019-05-25T00:18:32.523Z,1010.50
2019-05-25T00:19:32.951Z,1010.46
2019-05-25T00:20:33.506Z,1010.46
2019-05-25T00:21:33.937Z,1010.46
2019-05-25T00:22:34.493Z,1010.46
2019-05-25T00:23:34.916Z,1010.47
2019-05-25T00:24:35.342Z,1010.47
2019-05-25T00:25:35.785Z,1010.50
2019-05-25T00:26:36.262Z,1010.47
2019-05-25T00:27:36.690Z,1010.49
2019-05-25T00:28:37.129Z,1010.52
2019-05-25T00:29:37.618Z,1010.46
2019-05-25T00:30:38.051Z,1010.57
2019-05-25T00:31:38.469Z,1010.45
2019-05-25T00:32:38.894Z,1010.58
2019-05-25T00:33:39.317Z,1010.51
2019-05-25T00:34:39.747Z,1010.54
2019-05-25T00:35:40.178Z,1010.52
2019-05-25T00:36:40.613Z,1010.49
2019-05-25T00:37:41.040Z,1010.50
2019-05-25T00:38:41.467Z,1010.56
2019-05-25T00:39:41.898Z,1010.52
2019-05-25T00:40:42.335Z,1010.58
2019-05-25T00:41:42.760Z,1010.61
2019-05-25T00:42:43.180Z,1010.59
2019-05-25T00:43:43.657Z,1010.60
2019-05-25T00:44:44.119Z,1010.56
2019-05-25T00:45:44.567Z,1010.58
2019-05-25T00:46:45.008Z,1010.64
2019-05-25T00:47:45.434Z,1010.65
2019-05-25T00:48:45.939Z,1010.65
2019-05-25T00:49:46.369Z,1010.64
2019-05-25T00:50:46.924Z,1010.65
2019-05-25T00:51:47.348Z,1010.63
2019-05-25T00:52:47.810Z,1010.68
2019-05-25T00:53:48.241Z,1010.65
2019-05-25T00:57:08.316Z,1010.60
2019-05-25T00:58:24.754Z,1010.66
2019-05-25T00:59:25.200Z,1010.63
2019-05-25T01:00:25.689Z,1010.65
2019-05-25T01:01:26.136Z,1010.62
2019-05-25T01:02:48.642Z,1010.67
2019-05-25T01:03:49.080Z,1010.64
2019-05-25T01:05:12.620Z,1010.65
2019-05-25T01:06:13.052Z,1010.59
2019-05-25T01:07:15.497Z,1010.61
2019-05-25T01:08:15.971Z,1010.65
2019-05-25T01:09:16.429Z,1010.64
2019-05-25T01:10:39.935Z,1010.65
2019-05-25T01:11:40.363Z,1010.65
2019-05-25T01:12:42.873Z,1010.65
2019-05-25T01:13:43.295Z,1010.66
2019-05-25T01:14:58.766Z,1010.67
2019-05-25T01:15:59.217Z,1010.60
2019-05-25T01:17:27.247Z,1010.62
2019-05-25T01:18:27.676Z,1010.64
2019-05-25T01:19:28.181Z,1010.72
2019-05-25T01:20:28.613Z,1010.67
2019-05-25T01:21:30.160Z,1010.61
2019-05-25T01:22:30.591Z,1010.64
2019-05-25T01:23:37.719Z,1010.61
2019-05-25T01:24:44.412Z,1010.65
2019-05-25T01:27:53.964Z,1010.69
2019-05-25T01:28:54.401Z,1010.76
2019-05-25T01:29:54.829Z,1010.68
2019-05-25T01:30:57.035Z,1010.75
2019-05-25T01:32:18.499Z,1010.75
2019-05-25T01:33:18.930Z,1010.76
2019-05-25T01:34:19.356Z,1010.74
2019-05-25T01:35:19.776Z,1010.73
2019-05-25T01:36:20.230Z,1010.83
2019-05-25T01:37:20.655Z,1010.77
2019-05-25T01:38:21.077Z,1010.81
2019-05-25T01:39:21.500Z,1010.82
2019-05-25T01:40:21.924Z,1010.78
2019-05-25T01:41:22.371Z,1010.77
2019-05-25T01:42:50.653Z,1010.79
2019-05-25T01:43:51.105Z,1010.79
2019-05-25T01:44:51.541Z,1010.81
2019-05-25T01:45:52.007Z,1010.81
2019-05-25T01:46:52.421Z,1010.79
2019-05-25T01:47:53.932Z,1010.85
2019-05-25T01:48:54.365Z,1010.83
2019-05-25T01:49:56.813Z,1010.89
2019-05-25T01:50:57.255Z,1010.85
2019-05-25T01:54:09.792Z,1010.86
2019-05-25T01:55:10.261Z,1010.80
2019-05-25T01:56:10.702Z,1010.85
2019-05-25T01:57:13.142Z,1010.86
2019-05-25T01:58:13.574Z,1010.81
2019-05-25T02:01:23.370Z,1010.86
2019-05-25T02:02:31.521Z,1010.83
2019-05-25T02:03:31.955Z,1010.85
2019-05-25T02:04:39.019Z,1010.86
2019-05-25T02:05:39.448Z,1010.87
2019-05-25T02:06:39.965Z,1010.85
2019-05-25T02:07:40.431Z,1010.85
2019-05-25T02:08:41.895Z,1010.86
2019-05-25T02:09:42.331Z,1010.88
2019-05-25T02:10:42.826Z,1010.90
2019-05-25T02:11:43.270Z,1010.87
2019-05-25T02:14:55.821Z,1010.93
2019-05-25T02:16:35.739Z,1010.94
2019-05-25T02:17:36.160Z,1010.91
2019-05-25T02:18:36.659Z,1010.91
2019-05-25T02:19:37.099Z,1010.93
2019-05-25T02:20:37.685Z,1010.91
2019-05-25T02:21:38.145Z,1010.94
2019-05-25T02:24:50.673Z,1010.92
2019-05-25T02:26:13.275Z,1010.89
2019-05-25T02:27:13.695Z,1010.93
2019-05-25T02:28:23.088Z,1010.91
2019-05-25T02:29:23.517Z,1010.93
2019-05-25T02:30:25.061Z,1010.94
2019-05-25T02:31:25.507Z,1010.94
2019-05-25T02:32:25.983Z,1010.91
2019-05-25T02:33:26.414Z,1010.90
2019-05-25T02:34:28.878Z,1010.91
2019-05-25T02:35:29.295Z,1010.95
2019-05-25T02:36:53.597Z,1010.94
2019-05-25T02:37:54.024Z,1010.98
2019-05-25T02:38:54.550Z,1011.02
2019-05-25T02:39:54.966Z,1011.03
2019-05-25T02:40:55.388Z,1011.05
2019-05-25T02:41:55.832Z,1010.99
2019-05-25T02:42:56.248Z,1011.03
2019-05-25T02:43:56.691Z,1011.02
2019-05-25T02:44:57.151Z,1011.02
2019-05-25T02:45:57.570Z,1011.02
2019-05-25T02:46:58.022Z,1011.03
2019-05-25T02:47:58.454Z,1011.05
2019-05-25T02:48:58.872Z,1011.09
2019-05-25T02:49:59.293Z,1011.03
2019-05-25T02:50:59.750Z,1011.13
2019-05-25T02:52:00.195Z,1011.13
2019-05-25T02:53:00.622Z,1011.13
2019-05-25T02:54:01.058Z,1011.16
2019-05-25T02:55:01.499Z,1011.11
2019-05-25T02:56:01.928Z,1011.12
2019-05-25T02:57:02.375Z,1011.13
2019-05-25T02:58:02.802Z,1011.16
2019-05-25T02:59:03.229Z,1011.15
2019-05-25T03:00:03.667Z,1011.16
2019-05-25T03:01:04.122Z,1011.18
2019-05-25T03:02:04.564Z,1011.17
2019-05-25T03:03:04.990Z,1011.17
2019-05-25T03:04:05.415Z,1011.16
2019-05-25T03:05:05.834Z,1011.17
2019-05-25T03:06:06.699Z,1011.23
2019-05-25T03:07:07.736Z,1011.20
2019-05-25T03:08:08.162Z,1011.23
2019-05-25T03:09:08.584Z,1011.21
2019-05-25T03:10:09.011Z,1011.19
2019-05-25T03:11:09.432Z,1011.26
2019-05-25T03:12:09.876Z,1011.24
2019-05-25T03:13:10.349Z,1011.26
2019-05-25T03:14:10.782Z,1011.27
2019-05-25T03:15:11.283Z,1011.32
2019-05-25T03:16:11.708Z,1011.39
2019-05-25T03:17:12.156Z,1011.36
2019-05-25T03:18:12.605Z,1011.36
2019-05-25T03:19:13.018Z,1011.33
2019-05-25T03:20:13.445Z,1011.39
2019-05-25T03:21:13.872Z,1011.33
2019-05-25T03:22:14.313Z,1011.38
2019-05-25T03:23:14.748Z,1011.38
2019-05-25T03:24:15.237Z,1011.37
2019-05-25T03:25:15.666Z,1011.37
2019-05-25T03:26:16.109Z,1011.41
2019-05-25T03:27:16.554Z,1011.41
2019-05-25T03:28:17.013Z,1011.41
2019-05-25T03:29:17.436Z,1011.43
2019-05-25T03:30:17.872Z,1011.47
2019-05-25T03:31:18.313Z,1011.43
2019-05-25T03:32:18.750Z,1011.43
2019-05-25T03:33:19.197Z,1011.38
2019-05-25T03:34:19.636Z,1011.36
2019-05-25T03:35:35.083Z,1011.39
2019-05-25T03:36:35.528Z,1011.41
2019-05-25T03:37:36.022Z,1011.40
2019-05-25T03:38:36.457Z,1011.43
2019-05-25T03:39:41.969Z,1011.44
2019-05-25T03:40:42.390Z,1011.47
2019-05-25T03:41:42.933Z,1011.47
2019-05-25T03:42:43.362Z,1011.47
2019-05-25T03:43:43.839Z,1011.46
2019-05-25T03:44:44.260Z,1011.44
2019-05-25T03:45:44.773Z,1011.46
2019-05-25T03:46:45.323Z,1011.48
2019-05-25T03:47:45.810Z,1011.45
2019-05-25T03:48:46.237Z,1011.45
2019-05-25T03:49:46.750Z,1011.48
2019-05-25T03:50:47.175Z,1011.52
2019-05-25T03:51:49.666Z,1011.47
2019-05-25T03:52:50.086Z,1011.48
2019-05-25T03:53:50.562Z,1011.49
2019-05-25T03:54:50.987Z,1011.49
2019-05-25T03:56:04.801Z,1011.46
2019-05-25T03:56:57.917Z,1011.50
2019-05-25T03:57:58.383Z,1011.47
2019-05-25T03:58:58.810Z,1011.49
2019-05-25T03:59:59.307Z,1011.51
2019-05-25T04:00:59.733Z,1011.48
2019-05-25T04:02:00.285Z,1011.50
2019-05-25T04:03:00.720Z,1011.51
2019-05-25T04:04:01.177Z,1011.53
2019-05-25T04:05:01.621Z,1011.54
2019-05-25T04:06:02.164Z,1011.50
2019-05-25T04:07:02.601Z,1011.50
2019-05-25T04:08:03.054Z,1011.49
2019-05-25T04:09:03.487Z,1011.55
2019-05-25T04:10:03.932Z,1011.45
2019-05-25T04:11:04.369Z,1011.50
2019-05-25T04:12:04.852Z,1011.55
2019-05-25T04:13:05.279Z,1011.56
2019-05-25T04:14:05.754Z,1011.57
2019-05-25T04:15:06.170Z,1011.56
2019-05-25T04:16:06.690Z,1011.54
2019-05-25T04:17:07.148Z,1011.57
2019-05-25T04:18:07.628Z,1011.58
2019-05-25T04:19:08.060Z,1011.61
2019-05-25T04:20:08.560Z,1011.58
2019-05-25T04:21:08.989Z,1011.56
2019-05-25T04:22:09.432Z,1011.61
2019-05-25T04:23:09.851Z,1011.58
2019-05-25T04:24:10.327Z,1011.57
2019-05-25T04:25:10.762Z,1011.54
2019-05-25T04:26:22.189Z,1011.60
2019-05-25T04:27:17.631Z,1011.55
2019-05-25T04:28:26.132Z,1011.58
2019-05-25T04:29:26.563Z,1011.54
2019-05-25T04:30:26.994Z,1011.54
2019-05-25T04:31:27.415Z,1011.55
2019-05-25T04:32:27.933Z,1011.60
2019-05-25T04:33:28.361Z,1011.62
2019-05-25T04:34:28.831Z,1011.63
2019-05-25T04:35:29.258Z,1011.62
2019-05-25T04:36:29.764Z,1011.64
2019-05-25T04:37:30.210Z,1011.72
2019-05-25T04:38:30.700Z,1011.66
2019-05-25T04:39:31.122Z,1011.65
2019-05-25T04:40:38.604Z,1011.67
2019-05-25T04:41:39.031Z,1011.66
2019-05-25T04:42:39.569Z,1011.69
2019-05-25T04:43:39.995Z,1011.67
2019-05-25T04:44:41.475Z,1011.70
2019-05-25T04:45:41.894Z,1011.74
2019-05-25T04:48:52.916Z,1011.74
2019-05-25T04:50:08.342Z,1011.75
2019-05-25T04:51:08.762Z,1011.78
2019-05-25T04:52:10.229Z,1011.76
2019-05-25T04:53:10.648Z,1011.74
2019-05-25T04:54:32.125Z,1011.75
2019-05-25T04:55:32.541Z,1011.76
2019-05-25T04:56:39.572Z,1011.81
2019-05-25T04:57:40.401Z,1011.75
2019-05-25T04:58:56.828Z,1011.72
2019-05-25T04:59:57.249Z,1011.76
2019-05-25T05:07:31.242Z,1011.77
2019-05-25T05:08:34.960Z,1011.74
2019-05-25T05:09:36.096Z,1011.75
2019-05-25T05:11:53.618Z,1011.76
2019-05-25T05:12:54.097Z,1011.79
2019-05-25T05:13:54.514Z,1011.79
2019-05-25T05:14:56.615Z,1011.73
2019-05-25T05:15:57.085Z,1011.72
2019-05-25T05:16:57.991Z,1011.78
2019-05-25T05:17:58.426Z,1011.74
2019-05-25T05:19:10.590Z,1011.82
2019-05-25T05:20:11.021Z,1011.70
2019-05-25T05:21:12.555Z,1011.76
2019-05-25T05:22:12.997Z,1011.73
2019-05-25T05:23:20.141Z,1011.76
2019-05-25T05:24:20.572Z,1011.81
2019-05-25T05:25:27.636Z,1011.81
2019-05-25T05:26:28.156Z,1011.82
2019-05-25T05:27:32.188Z,1011.83
2019-05-25T05:28:32.620Z,1011.79
2019-05-25T05:29:34.116Z,1011.80
2019-05-25T05:30:34.537Z,1011.84
2019-05-25T05:32:52.035Z,1011.84
2019-05-25T05:33:54.519Z,1011.79
2019-05-25T05:34:54.938Z,1011.77
2019-05-25T05:36:16.451Z,1011.81
2019-05-25T05:37:16.907Z,1011.80
2019-05-25T05:38:32.127Z,1011.81
2019-05-25T05:39:32.554Z,1011.83
2019-05-25T05:40:34.086Z,1011.83
2019-05-25T05:41:34.503Z,1011.76
2019-05-25T05:42:37.101Z,1011.85
2019-05-25T05:43:37.533Z,1011.79
2019-05-25T05:44:38.018Z,1011.83
2019-05-25T05:45:38.440Z,1011.81
2019-05-25T05:46:53.586Z,1011.78
2019-05-25T05:47:54.024Z,1011.82
2019-05-25T05:48:56.566Z,1011.82
2019-05-25T05:49:57.001Z,1011.85
2019-05-25T05:50:59.447Z,1011.86
2019-05-25T05:51:59.870Z,1011.85
2019-05-25T05:55:10.886Z,1011.88
2019-05-25T05:58:27.909Z,1011.91
2019-05-25T06:00:04.323Z,1011.86
2019-05-25T06:01:04.743Z,1011.86
2019-05-25T06:02:05.256Z,1011.87
2019-05-25T06:03:05.711Z,1011.81
2019-05-25T06:04:20.833Z,1011.86
2019-05-25T06:05:21.671Z,1011.89
2019-05-25T06:08:34.223Z,1011.99
2019-05-25T06:09:34.645Z,1011.88
2019-05-25T06:10:35.526Z,1011.90
2019-05-25T06:11:35.965Z,1011.93
2019-05-25T06:12:36.422Z,1011.96
2019-05-25T06:13:36.843Z,1011.97
2019-05-25T06:14:39.341Z,1012.02
2019-05-25T06:15:39.778Z,1011.99
2019-05-25T06:16:57.174Z,1012.02
2019-05-25T06:17:57.614Z,1012.05
2019-05-25T06:18:58.105Z,1012.05
2019-05-25T06:19:58.532Z,1012.07
2019-05-25T06:21:00.882Z,1012.03
2019-05-25T06:22:01.307Z,1012.09
2019-05-25T06:23:01.853Z,1012.09
2019-05-25T06:24:02.275Z,1012.04
2019-05-25T06:25:03.782Z,1012.08
2019-05-25T06:26:04.201Z,1012.08
2019-05-25T06:27:27.753Z,1012.08
2019-05-25T06:28:28.526Z,1012.09
2019-05-25T06:29:30.018Z,1012.12
2019-05-25T06:30:30.441Z,1012.14
2019-05-25T06:31:32.906Z,1012.15
2019-05-25T06:32:33.329Z,1012.18
2019-05-25T06:33:34.926Z,1012.10
2019-05-25T06:34:35.346Z,1012.10
2019-05-25T06:35:36.824Z,1012.12
2019-05-25T06:36:37.247Z,1012.19
2019-05-25T06:37:37.755Z,1012.20
2019-05-25T06:38:38.189Z,1012.16
2019-05-25T06:39:38.606Z,1012.18
2019-05-25T06:40:39.903Z,1012.17
2019-05-25T06:41:40.333Z,1012.20
2019-05-25T06:42:40.753Z,1012.20
2019-05-25T06:43:41.193Z,1012.21
2019-05-25T06:44:41.685Z,1012.24
2019-05-25T06:45:42.110Z,1012.22
2019-05-25T06:46:42.532Z,1012.16
2019-05-25T06:47:42.954Z,1012.23
2019-05-25T06:48:43.401Z,1012.14
2019-05-25T06:49:43.846Z,1012.16
2019-05-25T06:50:44.269Z,1012.16
2019-05-25T06:51:44.690Z,1012.18
2019-05-25T06:52:45.126Z,1012.15
2019-05-25T06:53:45.571Z,1012.17
2019-05-25T06:54:46.002Z,1012.17
2019-05-25T06:55:46.454Z,1012.19
2019-05-25T06:56:47.514Z,1012.24
2019-05-25T06:57:47.937Z,1012.25
2019-05-25T06:58:48.422Z,1012.27
2019-05-25T06:59:48.856Z,1012.21
2019-05-25T07:00:49.325Z,1012.24
2019-05-25T07:01:49.751Z,1012.21
2019-05-25T07:02:50.260Z,1012.16
2019-05-25T07:03:50.717Z,1012.22
2019-05-25T07:04:51.518Z,1012.21
2019-05-25T07:05:51.988Z,1012.15
2019-05-25T07:06:52.419Z,1012.20
2019-05-25T07:07:54.729Z,1012.18
2019-05-25T07:08:55.381Z,1012.17
2019-05-25T07:09:55.839Z,1012.20
2019-05-25T07:10:56.262Z,1012.23
2019-05-25T07:11:56.780Z,1012.23
2019-05-25T07:12:57.212Z,1012.25
2019-05-25T07:13:58.769Z,1012.23
2019-05-25T07:14:59.279Z,1012.22
2019-05-25T07:15:59.783Z,1012.30
2019-05-25T07:17:00.212Z,1012.17
2019-05-25T07:18:01.751Z,1012.19
2019-05-25T07:19:02.194Z,1012.21
2019-05-25T07:20:02.625Z,1012.17
2019-05-25T07:21:03.056Z,1012.24
2019-05-25T07:22:03.502Z,1012.19
2019-05-25T07:23:04.228Z,1012.28
2019-05-25T07:24:04.753Z,1012.24
2019-05-25T07:25:05.195Z,1012.27
2019-05-25T07:26:05.677Z,1012.30
2019-05-25T07:27:06.098Z,1012.26
2019-05-25T07:28:06.654Z,1012.29
2019-05-25T07:29:07.104Z,1012.27
2019-05-25T07:30:08.573Z,1012.34
2019-05-25T07:31:08.993Z,1012.28
2019-05-25T07:32:09.507Z,1012.33
2019-05-25T07:33:10.026Z,1012.23
2019-05-25T07:34:10.547Z,1012.31
2019-05-25T07:35:10.972Z,1012.34
2019-05-25T07:36:11.480Z,1012.34
2019-05-25T07:37:11.926Z,1012.34
2019-05-25T07:38:12.466Z,1012.26
2019-05-25T07:39:12.885Z,1012.34
2019-05-25T07:40:13.353Z,1012.30
2019-05-25T07:41:13.775Z,1012.32
2019-05-25T07:42:14.312Z,1012.28
2019-05-25T07:43:14.755Z,1012.28
2019-05-25T07:44:15.221Z,1012.31
2019-05-25T07:45:15.652Z,1012.32
2019-05-25T07:46:17.259Z,1012.33
2019-05-25T07:47:17.905Z,1012.22
2019-05-25T07:48:18.348Z,1012.19
2019-05-25T07:49:18.841Z,1012.25
2019-05-25T07:50:19.281Z,1012.26
2019-05-25T07:51:19.781Z,1012.24
2019-05-25T07:52:20.212Z,1012.25
2019-05-25T07:53:24.132Z,1012.24
2019-05-25T07:54:24.567Z,1012.27
2019-05-25T07:55:27.078Z,1012.29
2019-05-25T07:56:27.535Z,1012.23
2019-05-25T07:57:28.753Z,1012.23
2019-05-25T07:58:29.374Z,1012.28
2019-05-25T07:59:29.804Z,1012.23
2019-05-25T08:00:30.263Z,1012.29
2019-05-25T08:01:30.690Z,1012.28
2019-05-25T08:02:31.224Z,1012.26
2019-05-25T08:03:31.694Z,1012.32
2019-05-25T08:04:32.155Z,1012.25
2019-05-25T08:05:32.587Z,1012.28
2019-05-25T08:06:33.098Z,1012.22
2019-05-25T08:07:33.521Z,1012.22
2019-05-25T08:08:34.074Z,1012.22
2019-05-25T08:09:34.499Z,1012.22
2019-05-25T08:10:34.963Z,1012.25
2019-05-25T08:11:35.383Z,1012.31
2019-05-25T08:12:35.896Z,1012.28
2019-05-25T08:13:36.341Z,1012.27
2019-05-25T08:14:36.770Z,1012.26
2019-05-25T08:15:37.249Z,1012.21
2019-05-25T08:16:37.677Z,1012.21
2019-05-25T08:17:38.115Z,1012.19
2019-05-25T08:18:38.559Z,1012.22
2019-05-25T08:19:39.028Z,1012.18
2019-05-25T08:20:39.463Z,1012.21
2019-05-25T08:21:39.963Z,1012.19
2019-05-25T08:22:40.392Z,1012.22
2019-05-25T08:23:40.925Z,1012.27
2019-05-25T08:24:41.351Z,1012.20
2019-05-25T08:25:42.848Z,1012.19
2019-05-25T08:26:43.283Z,1012.19
2019-05-25T08:27:43.797Z,1012.18
2019-05-25T08:28:44.242Z,1012.22
2019-05-25T08:29:44.718Z,1012.29
2019-05-25T08:30:45.195Z,1012.24
2019-05-25T08:31:45.757Z,1012.27
2019-05-25T08:32:46.186Z,1012.22
2019-05-25T08:33:50.116Z,1012.34
2019-05-25T08:34:50.549Z,1012.32
2019-05-25T08:35:51.013Z,1012.31
2019-05-25T08:36:51.427Z,1012.34
2019-05-25T08:37:51.946Z,1012.35
2019-05-25T08:38:54.776Z,1012.30
2019-05-25T08:39:55.566Z,1012.28
2019-05-25T08:40:56.001Z,1012.33
2019-05-25T08:41:56.482Z,1012.31
2019-05-25T08:42:56.901Z,1012.28
2019-05-25T08:43:57.450Z,1012.31
2019-05-25T08:44:57.875Z,1012.34
2019-05-25T08:45:58.375Z,1012.32
2019-05-25T08:46:58.813Z,1012.29
2019-05-25T08:47:59.302Z,1012.28
2019-05-25T08:48:59.740Z,1012.25
2019-05-25T08:50:00.244Z,1012.31
2019-05-25T08:51:00.669Z,1012.27
2019-05-25T08:52:04.057Z,1012.26
2019-05-25T08:53:04.724Z,1012.32
2019-05-25T08:54:05.221Z,1012.31
2019-05-25T08:55:05.660Z,1012.31
2019-05-25T08:56:06.085Z,1012.25
2019-05-25T08:57:06.516Z,1012.31
2019-05-25T08:58:15.607Z,1012.23
2019-05-25T08:59:16.063Z,1012.30
2019-05-25T09:00:18.586Z,1012.27
2019-05-25T09:01:19.022Z,1012.26
2019-05-25T09:02:20.552Z,1012.30
2019-05-25T09:03:20.977Z,1012.33
2019-05-25T09:04:25.621Z,1012.29
2019-05-25T09:05:26.223Z,1012.36
2019-05-25T09:06:27.742Z,1012.35
2019-05-25T09:07:28.164Z,1012.26
2019-05-25T09:08:30.605Z,1012.32
2019-05-25T09:09:31.041Z,1012.31
2019-05-25T09:10:46.099Z,1012.32
2019-05-25T09:11:46.542Z,1012.30
2019-05-25T09:12:49.084Z,1012.28
2019-05-25T09:13:49.529Z,1012.28
2019-05-25T09:15:11.017Z,1012.28
2019-05-25T09:16:11.448Z,1012.25
2019-05-25T09:17:27.629Z,1012.22
2019-05-25T09:18:28.049Z,1012.33
2019-05-25T09:19:30.539Z,1012.31
2019-05-25T09:20:30.973Z,1012.29
2019-05-25T09:21:31.391Z,1012.29
2019-05-25T09:22:52.841Z,1012.29
2019-05-25T09:23:53.289Z,1012.30
2019-05-25T09:24:53.825Z,1012.32
2019-05-25T09:25:54.267Z,1012.21
2019-05-25T09:27:30.666Z,1012.30
2019-05-25T09:28:31.091Z,1012.26
2019-05-25T09:29:57.637Z,1012.32
2019-05-25T09:30:58.065Z,1012.23
2019-05-25T09:32:13.179Z,1012.22
2019-05-25T09:33:13.620Z,1012.24
2019-05-25T09:34:14.056Z,1012.26
2019-05-25T09:35:14.531Z,1012.27
2019-05-25T09:36:14.952Z,1012.29
2019-05-25T09:37:16.490Z,1012.33
2019-05-25T09:38:16.922Z,1012.30
2019-05-25T09:39:19.411Z,1012.32
2019-05-25T09:40:19.858Z,1012.28
2019-05-25T09:42:43.541Z,1012.36
2019-05-25T09:48:06.316Z,1012.32
2019-05-25T09:49:06.763Z,1012.33
2019-05-25T09:50:22.778Z,1012.39
2019-05-25T09:51:23.211Z,1012.29
2019-05-25T09:52:23.640Z,1012.28
2019-05-25T09:53:26.185Z,1012.25
2019-05-25T09:54:26.645Z,1012.26
2019-05-25T09:55:27.111Z,1012.21
2019-05-25T09:56:27.525Z,1012.29
2019-05-25T09:57:28.047Z,1012.27
2019-05-25T09:58:28.483Z,1012.26
2019-05-25T09:59:30.966Z,1012.23
2019-05-25T10:00:31.382Z,1012.36
2019-05-25T10:01:31.866Z,1012.30
2019-05-25T10:02:32.297Z,1012.23
2019-05-25T10:03:32.730Z,1012.31
2019-05-25T10:04:33.165Z,1012.35
2019-05-25T10:05:33.631Z,1012.33
2019-05-25T10:06:34.104Z,1012.35
2019-05-25T10:08:51.719Z,1012.31
2019-05-25T10:09:52.198Z,1012.34
2019-05-25T10:10:52.641Z,1012.29
2019-05-25T10:11:53.098Z,1012.31
2019-05-25T10:12:53.520Z,1012.36
2019-05-25T10:13:54.033Z,1012.34
2019-05-25T10:14:54.471Z,1012.37
2019-05-25T10:15:54.969Z,1012.38
2019-05-25T10:16:55.395Z,1012.39
2019-05-25T10:17:55.904Z,1012.35
2019-05-25T10:18:56.334Z,1012.36
2019-05-25T10:19:56.892Z,1012.39
2019-05-25T10:20:57.342Z,1012.39
2019-05-25T10:21:59.550Z,1012.48
2019-05-25T10:23:00.343Z,1012.46
2019-05-25T10:24:00.776Z,1012.46
2019-05-25T10:25:01.335Z,1012.47
2019-05-25T10:26:01.781Z,1012.45
2019-05-25T10:27:02.318Z,1012.40
2019-05-25T10:28:02.736Z,1012.40
2019-05-25T10:29:03.173Z,1012.41
2019-05-25T10:30:03.605Z,1012.41
2019-05-25T10:31:04.039Z,1012.45
2019-05-25T10:32:04.506Z,1012.44
2019-05-25T10:33:04.955Z,1012.37
2019-05-25T10:34:13.303Z,1012.37
2019-05-25T10:35:13.740Z,1012.40
2019-05-25T10:38:55.358Z,1012.39
2019-05-25T10:39:55.874Z,1012.47
2019-05-25T10:40:58.498Z,1012.41
2019-05-25T10:41:59.231Z,1012.38
2019-05-25T10:42:59.651Z,1012.39
2019-05-25T10:44:00.066Z,1012.43
2019-05-25T10:45:03.827Z,1012.37
2019-05-25T10:46:04.264Z,1012.37
2019-05-25T10:47:21.314Z,1012.37
2019-05-25T10:48:21.738Z,1012.29
2019-05-25T10:49:57.312Z,1012.34
2019-05-25T10:50:57.741Z,1012.33
2019-05-25T11:02:17.874Z,1012.42
2019-05-25T11:03:18.298Z,1012.35
2019-05-25T11:04:57.853Z,1012.35
2019-05-25T11:05:58.287Z,1012.34
2019-05-25T11:07:20.743Z,1012.35
2019-05-25T11:08:21.176Z,1012.27
2019-05-25T11:09:57.775Z,1012.34
2019-05-25T11:10:58.198Z,1012.38
2019-05-25T11:12:21.692Z,1012.37
2019-05-25T11:13:22.102Z,1012.36
2019-05-25T11:32:25.471Z,1012.32
2019-05-25T11:33:25.897Z,1012.31
2019-05-25T11:34:26.330Z,1012.29
2019-05-25T11:35:26.852Z,1012.27
2019-05-25T11:36:28.376Z,1012.30
2019-05-25T11:37:28.819Z,1012.32
2019-05-25T11:38:37.295Z,1012.23
2019-05-25T11:39:37.731Z,1012.34
2019-05-25T11:40:40.225Z,1012.22
2019-05-25T11:41:40.681Z,1012.22
2019-05-25T11:42:42.136Z,1012.21
2019-05-25T11:43:42.557Z,1012.27
2019-05-25T11:46:00.171Z,1012.23
2019-05-25T11:47:02.651Z,1012.19
2019-05-25T11:48:03.091Z,1012.17
2019-05-25T11:49:03.519Z,1012.26
2019-05-25T11:50:03.952Z,1012.29
2019-05-25T11:51:04.402Z,1012.23
2019-05-25T11:52:04.821Z,1012.24
2019-05-25T11:53:06.059Z,1012.22
2019-05-25T11:54:13.315Z,1012.20
2019-05-25T11:55:13.756Z,1012.26
2019-05-25T11:58:46.566Z,1012.25
2019-05-25T12:00:23.345Z,1012.21
2019-05-25T12:01:15.121Z,1012.18
2019-05-25T12:02:16.685Z,1012.18
2019-05-25T12:03:17.105Z,1012.18
2019-05-25T12:04:17.617Z,1012.18
2019-05-25T12:05:18.053Z,1012.16
2019-05-25T12:06:18.549Z,1012.18
2019-05-25T12:07:18.977Z,1012.19
2019-05-25T12:08:40.476Z,1012.18
2019-05-25T12:09:40.898Z,1012.17
2019-05-25T12:10:42.370Z,1012.15
2019-05-25T12:11:42.821Z,1012.14
2019-05-25T12:14:19.701Z,1012.00
2019-05-25T12:15:21.202Z,1012.04
2019-05-25T12:16:21.640Z,1011.98
2019-05-25T12:17:29.682Z,1011.98
2019-05-25T12:18:30.107Z,1012.02
2019-05-25T12:19:30.568Z,1011.96
2019-05-25T12:21:11.269Z,1011.97
2019-05-25T12:22:11.692Z,1011.95
2019-05-25T12:31:30.328Z,1011.88
2019-05-25T12:32:30.759Z,1011.84
2019-05-25T12:33:31.233Z,1011.80
2019-05-25T12:34:31.675Z,1011.80
2019-05-25T12:35:32.197Z,1011.82
2019-05-25T12:36:32.621Z,1011.88
2019-05-25T12:37:33.097Z,1011.89
2019-05-25T12:38:33.520Z,1011.83
2019-05-25T12:39:34.020Z,1011.83
2019-05-25T12:40:34.492Z,1011.86
2019-05-25T12:41:34.921Z,1011.88
2019-05-25T12:42:35.387Z,1011.85
2019-05-25T12:43:35.837Z,1011.76
2019-05-25T12:44:43.284Z,1011.79
2019-05-25T12:45:43.723Z,1011.89
2019-05-25T12:46:44.220Z,1011.81
2019-05-25T12:47:44.667Z,1011.84
2019-05-25T12:48:45.156Z,1011.78
2019-05-25T12:49:50.650Z,1011.77
2019-05-25T12:50:52.063Z,1011.75
2019-05-25T12:51:52.488Z,1011.72
2019-05-25T12:52:52.972Z,1011.75
2019-05-25T12:53:53.397Z,1011.75
2019-05-25T12:54:53.901Z,1011.76
2019-05-25T12:55:54.345Z,1011.73
2019-05-25T12:56:54.781Z,1011.77
2019-05-25T12:57:55.255Z,1011.78
2019-05-25T12:58:55.683Z,1011.73
2019-05-25T12:59:56.191Z,1011.66
2019-05-25T13:00:56.640Z,1011.66
2019-05-25T13:01:57.121Z,1011.70
2019-05-25T13:02:57.551Z,1011.64
2019-05-25T13:03:58.066Z,1011.68
2019-05-25T13:04:58.492Z,1011.67
2019-05-25T13:05:59.036Z,1011.63
2019-05-25T13:06:59.461Z,1011.60
2019-05-25T13:07:59.935Z,1011.63
2019-05-25T13:09:00.394Z,1011.66
2019-05-25T13:10:00.817Z,1011.59
2019-05-25T13:11:01.322Z,1011.59
2019-05-25T13:12:01.739Z,1011.62
2019-05-25T13:13:02.443Z,1011.69
2019-05-25T13:14:14.007Z,1011.65
2019-05-25T13:15:09.284Z,1011.66
2019-05-25T13:16:09.797Z,1011.65
2019-05-25T13:17:10.270Z,1011.77
2019-05-25T13:18:10.757Z,1011.69
2019-05-25T13:19:11.182Z,1011.74
2019-05-25T13:20:11.693Z,1011.73
2019-05-25T13:21:12.150Z,1011.78
2019-05-25T13:22:12.623Z,1011.75
2019-05-25T13:23:13.041Z,1011.74
2019-05-25T13:24:13.479Z,1011.70
2019-05-25T13:25:13.942Z,1011.68
2019-05-25T13:26:14.425Z,1011.62
2019-05-25T13:27:14.848Z,1011.67
2019-05-25T13:28:16.355Z,1011.67
2019-05-25T13:29:16.774Z,1011.65
2019-05-25T13:30:17.288Z,1011.65
2019-05-25T13:31:17.724Z,1011.61
2019-05-25T13:32:18.238Z,1011.62
2019-05-25T13:33:18.686Z,1011.59
2019-05-25T13:34:19.160Z,1011.65
2019-05-25T13:35:19.601Z,1011.62
2019-05-25T13:36:20.141Z,1011.60
2019-05-25T13:37:20.566Z,1011.70
2019-05-25T13:38:21.040Z,1011.66
2019-05-25T13:39:21.478Z,1011.67
2019-05-25T13:40:21.982Z,1011.65
2019-05-25T13:41:22.422Z,1011.66
2019-05-25T13:42:22.902Z,1011.69
2019-05-25T13:43:23.328Z,1011.66
2019-05-25T13:44:25.796Z,1011.71
2019-05-25T13:45:26.220Z,1011.63
2019-05-25T13:46:26.756Z,1011.66
2019-05-25T13:47:27.187Z,1011.68
2019-05-25T13:48:27.659Z,1011.65
2019-05-25T13:49:28.082Z,1011.72
2019-05-25T13:50:28.594Z,1011.69
2019-05-25T13:51:29.037Z,1011.73
2019-05-25T13:52:29.455Z,1011.70
2019-05-25T13:53:32.947Z,1011.72